Time;durP1;ratioP1;P1;durP2;ratioP2;P2;SDS_P1;SDS_P2;PMS_P1;PMS_P2;Temp;Humidity;BMP_temperature;BMP_pressure;BME280_temperature;BME280_humidity;BME280_pressure;Samples;Min_cycle;Max_cycle;Signal;HPM_P1;HPM_P2
2023/04/15 00:01:17;;;;;;;10.93;7.87;;;3.90;93.70;;;;;;5029656;28;20469;-67
2023/04/15 00:03:46;;;;;;;7.90;6.30;;;3.80;94.00;;;;;;5029236;28;20461;-66
2023/04/15 00:06:13;;;;;;;11.20;6.67;;;3.80;93.90;;;;;;5029291;28;20483;-66
2023/04/15 00:08:40;;;;;;;8.10;6.20;;;3.80;94.40;;;;;;5029550;28;20480;-67
2023/04/15 00:11:07;;;;;;;7.90;6.80;;;3.90;94.20;;;;;;5047301;28;20835;-67
2023/04/15 00:13:34;;;;;;;9.60;6.80;;;3.90;94.20;;;;;;5050407;28;20448;-66
2023/04/15 00:16:01;;;;;;;9.67;6.80;;;3.90;94.30;;;;;;5050391;28;20497;-65
2023/04/15 00:18:28;;;;;;;9.40;7.50;;;3.90;94.50;;;;;;5050572;28;20443;-68
2023/04/15 00:20:56;;;;;;;10.83;6.30;;;3.90;94.20;;;;;;5049791;28;20471;-66
2023/04/15 00:23:23;;;;;;;9.77;7.07;;;3.80;94.00;;;;;;5050179;28;20455;-67
2023/04/15 00:25:50;;;;;;;8.43;7.53;;;3.60;94.30;;;;;;5050056;28;20446;-66
2023/04/15 00:28:17;;;;;;;9.47;7.30;;;3.60;94.60;;;;;;5039605;28;20533;-66
2023/04/15 00:30:44;;;;;;;9.27;6.80;;;3.50;94.50;;;;;;5046878;28;20923;-65
2023/04/15 00:33:11;;;;;;;14.77;7.53;;;3.50;95.10;;;;;;5048565;28;21018;-67
2023/04/15 00:35:38;;;;;;;11.20;8.03;;;3.40;94.80;;;;;;5048512;28;20459;-66
2023/04/15 00:38:07;;;;;;;11.60;7.80;;;3.50;95.00;;;;;;5045760;28;20522;-69
2023/04/15 00:40:35;;;;;;;8.07;6.20;;;3.40;94.90;;;;;;5029094;28;20460;-65
2023/04/15 00:43:02;;;;;;;9.20;6.00;;;3.30;95.10;;;;;;5029637;28;20449;-66
2023/04/15 00:45:30;;;;;;;10.07;6.87;;;3.50;95.10;;;;;;5043758;28;20452;-66
2023/04/15 00:47:58;;;;;;;11.13;6.43;;;3.40;94.40;;;;;;5048495;28;20474;-68
2023/04/15 00:50:25;;;;;;;8.13;6.40;;;3.40;93.90;;;;;;5045907;28;20474;-65
2023/04/15 00:52:52;;;;;;;13.30;7.00;;;3.30;94.20;;;;;;5029536;28;20443;-66
2023/04/15 00:55:20;;;;;;;9.70;6.60;;;3.10;94.60;;;;;;5044160;28;20455;-66
2023/04/15 00:57:47;;;;;;;9.47;7.70;;;3.10;95.20;;;;;;5049434;28;20462;-66
2023/04/15 01:00:15;;;;;;;10.40;8.03;;;3.00;95.00;;;;;;5049661;28;20464;-67
2023/04/15 01:02:42;;;;;;;8.73;7.83;;;2.90;95.40;;;;;;5048655;28;20458;-69
2023/04/15 01:05:09;;;;;;;10.50;7.73;;;2.90;96.30;;;;;;5049968;28;20445;-66
2023/04/15 01:07:36;;;;;;;10.30;7.27;;;2.90;96.90;;;;;;5040090;28;20484;-69
2023/04/15 01:10:04;;;;;;;8.35;6.65;;;3.00;97.20;;;;;;5048763;28;21188;-71
2023/04/15 01:12:34;;;;;;;12.00;7.77;;;3.10;97.00;;;;;;5044786;28;20204;-67
2023/04/15 01:15:02;;;;;;;9.43;7.47;;;3.10;96.30;;;;;;5036077;28;20453;-66
2023/04/15 01:17:29;;;;;;;10.80;7.17;;;3.00;95.90;;;;;;5031196;28;20810;-67
2023/04/15 01:19:56;;;;;;;10.90;7.63;;;2.90;96.00;;;;;;5030726;28;20509;-66
2023/04/15 01:22:24;;;;;;;10.65;6.40;;;2.80;96.30;;;;;;5044270;28;20524;-66
2023/04/15 01:24:57;;;;;;;9.80;7.60;;;2.70;96.40;;;;;;5050524;28;20686;-69
2023/04/15 01:27:25;;;;;;;11.37;7.43;;;2.70;96.80;;;;;;5050255;28;20487;-66
2023/04/15 01:29:52;;;;;;;8.95;7.55;;;2.70;96.80;;;;;;5050852;28;20486;-69
2023/04/15 01:32:19;;;;;;;9.60;7.63;;;2.60;96.80;;;;;;5050706;28;20254;-68
2023/04/15 01:34:46;;;;;;;10.25;6.68;;;2.60;96.80;;;;;;5050311;28;20453;-66
2023/04/15 01:37:13;;;;;;;9.10;8.13;;;2.70;96.60;;;;;;5049765;28;20682;-67
2023/04/15 01:39:40;;;;;;;11.80;7.38;;;2.80;96.40;;;;;;5050222;28;20459;-67
2023/04/15 01:42:07;;;;;;;11.03;7.83;;;2.90;96.40;;;;;;5048262;28;20220;-67
2023/04/15 01:44:35;;;;;;;11.53;8.20;;;2.90;96.40;;;;;;5050330;28;20797;-70
2023/04/15 01:47:02;;;;;;;12.27;7.73;;;2.80;96.50;;;;;;5050396;28;20451;-70
2023/04/15 01:49:28;;;;;;;10.23;7.60;;;2.70;96.40;;;;;;5049980;28;20449;-67
2023/04/15 01:51:55;;;;;;;8.10;7.30;;;2.70;96.70;;;;;;5049664;28;20306;-67
2023/04/15 01:54:22;;;;;;;8.20;7.10;;;2.60;96.60;;;;;;5048259;28;20517;-68
2023/04/15 01:56:49;;;;;;;8.23;6.53;;;2.60;97.00;;;;;;5039854;28;20227;-70
2023/04/15 01:59:16;;;;;;;12.07;7.30;;;2.60;96.80;;;;;;5029828;28;20469;-68
2023/04/15 02:01:45;;;;;;;9.10;7.57;;;2.60;96.80;;;;;;5029984;28;20475;-67
2023/04/15 02:04:15;;;;;;;9.27;6.20;;;2.60;96.80;;;;;;5029462;28;20209;-67
2023/04/15 02:06:42;;;;;;;9.55;6.88;;;2.60;96.90;;;;;;5030052;28;20358;-68
2023/04/15 02:09:09;;;;;;;8.45;6.95;;;2.80;96.70;;;;;;5029901;28;20220;-68
2023/04/15 02:11:36;;;;;;;9.07;7.03;;;2.70;96.50;;;;;;5043532;28;20567;-68
2023/04/15 02:14:04;;;;;;;14.60;7.20;;;2.60;96.70;;;;;;5049716;28;20208;-69
2023/04/15 02:16:32;;;;;;;9.48;7.45;;;2.60;96.60;;;;;;5049631;28;20536;-68
2023/04/15 02:19:00;;;;;;;12.02;7.35;;;2.60;96.50;;;;;;5050066;28;20200;-68
2023/04/15 02:21:26;;;;;;;8.88;7.47;;;2.80;96.70;;;;;;5049584;28;20708;-67
2023/04/15 02:23:53;;;;;;;9.48;8.02;;;2.80;96.30;;;;;;5049720;28;20209;-71
2023/04/15 02:26:21;;;;;;;9.95;7.50;;;2.80;96.40;;;;;;5048705;28;20204;-67
2023/04/15 02:28:48;;;;;;;9.25;7.53;;;2.60;96.00;;;;;;5030359;28;20256;-68
2023/04/15 02:31:14;;;;;;;9.23;7.38;;;2.50;96.10;;;;;;5030033;28;20220;-67
2023/04/15 02:33:41;;;;;;;9.13;6.93;;;2.50;96.30;;;;;;5029815;28;20198;-66
2023/04/15 02:36:11;;;;;;;10.07;7.95;;;2.50;96.40;;;;;;5030140;28;20215;-68
2023/04/15 02:38:39;;;;;;;9.60;7.30;;;2.30;96.30;;;;;;5030008;28;20203;-66
2023/04/15 02:41:06;;;;;;;11.15;9.70;;;2.30;97.00;;;;;;5041655;28;20877;-67
2023/04/15 02:43:33;;;;;;;9.02;7.63;;;2.20;96.60;;;;;;5049795;28;20694;-67
2023/04/15 02:45:59;;;;;;;12.18;7.72;;;2.20;96.60;;;;;;5049856;28;20555;-67
2023/04/15 02:48:26;;;;;;;12.75;8.20;;;2.30;96.60;;;;;;5049932;28;20592;-72
2023/04/15 02:50:53;;;;;;;10.27;6.80;;;2.20;96.40;;;;;;5049526;28;20235;-66
2023/04/15 02:53:21;;;;;;;10.32;6.85;;;2.20;96.80;;;;;;5049588;28;20197;-66
2023/04/15 02:55:48;;;;;;;13.90;8.00;;;2.10;96.90;;;;;;5031639;28;20665;-66
2023/04/15 02:58:15;;;;;;;8.35;6.88;;;2.10;97.00;;;;;;5029511;28;20195;-72
2023/04/15 03:00:41;;;;;;;8.32;7.18;;;2.10;96.80;;;;;;5029638;28;20235;-69
2023/04/15 03:03:09;;;;;;;16.52;7.53;;;2.00;96.70;;;;;;5031356;28;20213;-66
2023/04/15 03:05:38;;;;;;;7.82;7.03;;;2.00;97.10;;;;;;5033584;28;20304;-67
2023/04/15 03:08:05;;;;;;;11.20;9.05;;;2.10;97.50;;;;;;5034582;28;20710;-67
2023/04/15 03:10:33;;;;;;;8.68;7.50;;;2.10;97.80;;;;;;5053448;28;20317;-67
2023/04/15 03:13:00;;;;;;;12.88;8.88;;;2.20;98.60;;;;;;5053334;28;20203;-68
2023/04/15 03:15:27;;;;;;;11.75;7.32;;;2.30;98.20;;;;;;5053728;28;20273;-67
2023/04/15 03:17:54;;;;;;;10.23;7.43;;;2.50;98.00;;;;;;5053506;28;20203;-66
2023/04/15 03:20:21;;;;;;;9.63;7.70;;;2.40;97.70;;;;;;5053566;28;20231;-66
2023/04/15 03:22:47;;;;;;;7.88;6.82;;;2.30;97.60;;;;;;5053610;28;20210;-67
2023/04/15 03:25:14;;;;;;;10.13;7.50;;;2.40;98.00;;;;;;5051046;28;20202;-67
2023/04/15 03:27:43;;;;;;;9.85;7.20;;;2.40;98.10;;;;;;5054211;28;20226;-67
2023/04/15 03:30:11;;;;;;;10.15;6.72;;;2.50;97.90;;;;;;5053442;28;20200;-68
2023/04/15 03:32:38;;;;;;;11.15;8.20;;;2.40;97.80;;;;;;5053481;28;20243;-71
2023/04/15 03:35:05;;;;;;;10.13;8.02;;;2.40;97.90;;;;;;5054076;28;20229;-70
2023/04/15 03:37:32;;;;;;;8.45;7.45;;;2.40;98.00;;;;;;5053622;28;20204;-68
2023/04/15 03:39:59;;;;;;;10.20;6.55;;;2.50;98.10;;;;;;5038003;28;20197;-70
2023/04/15 03:42:26;;;;;;;11.23;6.90;;;2.60;98.30;;;;;;5035493;28;20228;-71
2023/04/15 03:44:54;;;;;;;9.43;7.30;;;2.80;97.90;;;;;;5035239;28;20206;-68
2023/04/15 03:47:21;;;;;;;9.07;8.18;;;2.60;97.30;;;;;;5035682;28;20205;-66
2023/04/15 03:49:47;;;;;;;9.23;6.60;;;2.50;97.30;;;;;;5046807;28;20224;-68
2023/04/15 03:52:14;;;;;;;8.20;7.30;;;2.60;97.20;;;;;;5054567;28;20229;-67
2023/04/15 03:54:41;;;;;;;9.38;7.45;;;2.50;97.00;;;;;;5053604;28;20455;-71
2023/04/15 03:57:08;;;;;;;9.98;7.95;;;2.50;97.30;;;;;;5041831;28;20203;-66
2023/04/15 03:59:35;;;;;;;9.77;7.83;;;2.60;97.50;;;;;;5032871;28;20203;-67
2023/04/15 04:02:03;;;;;;;11.07;8.30;;;2.60;97.40;;;;;;5032992;28;20510;-70
2023/04/15 04:04:30;;;;;;;7.80;7.00;;;2.70;97.20;;;;;;5031921;28;20451;-69
2023/04/15 04:06:57;;;;;;;8.43;7.63;;;2.60;97.00;;;;;;5032161;28;20212;-71
2023/04/15 04:09:24;;;;;;;10.40;7.75;;;2.50;97.10;;;;;;5032216;28;20228;-67
2023/04/15 04:11:51;;;;;;;12.68;7.80;;;2.50;97.20;;;;;;5032218;28;20222;-68
2023/04/15 04:14:18;;;;;;;10.18;7.25;;;2.50;97.00;;;;;;5031289;28;20230;-68
2023/04/15 04:16:45;;;;;;;11.80;6.80;;;2.50;96.80;;;;;;5032398;28;20293;-70
2023/04/15 04:19:13;;;;;;;9.80;5.85;;;2.50;96.60;;;;;;5032218;28;20252;-67
2023/04/15 04:21:40;;;;;;;8.45;6.50;;;2.50;96.50;;;;;;5031994;28;20692;-67
2023/04/15 04:24:07;;;;;;;9.98;7.10;;;2.50;96.50;;;;;;5031726;28;20202;-68
2023/04/15 04:26:34;;;;;;;15.20;7.80;;;2.40;96.40;;;;;;5046115;28;20207;-66
2023/04/15 04:29:00;;;;;;;10.38;8.10;;;2.30;96.10;;;;;;5051010;28;20232;-69
2023/04/15 04:31:27;;;;;;;12.77;7.35;;;2.30;96.40;;;;;;5051499;28;20218;-70
2023/04/15 04:33:54;;;;;;;13.45;8.35;;;2.20;96.50;;;;;;5051045;28;20201;-66
2023/04/15 04:36:22;;;;;;;9.13;7.78;;;2.10;96.70;;;;;;5051793;28;20202;-66
2023/04/15 04:38:49;;;;;;;14.98;8.15;;;2.10;97.10;;;;;;5051485;28;20197;-67
2023/04/15 04:41:16;;;;;;;11.45;7.05;;;1.90;96.90;;;;;;5039699;28;20576;-67
2023/04/15 04:43:42;;;;;;;13.88;8.65;;;2.00;97.50;;;;;;5051810;28;20261;-66
2023/04/15 04:46:10;;;;;;;11.73;7.50;;;2.00;97.40;;;;;;5051857;28;20212;-67
2023/04/15 04:48:38;;;;;;;9.65;8.82;;;2.00;97.80;;;;;;5051531;28;20708;-66
2023/04/15 04:51:05;;;;;;;11.40;9.10;;;2.00;97.70;;;;;;5051423;28;20683;-66
2023/04/15 04:53:33;;;;;;;10.07;8.90;;;2.10;97.70;;;;;;5038223;28;20196;-68
2023/04/15 04:56:00;;;;;;;13.68;9.35;;;2.10;97.20;;;;;;5031242;28;20209;-66
2023/04/15 04:58:26;;;;;;;13.32;8.27;;;2.00;97.30;;;;;;5031506;28;20203;-67
2023/04/15 05:00:53;;;;;;;11.02;7.70;;;2.00;97.60;;;;;;5031564;28;20765;-67
2023/04/15 05:03:20;;;;;;;12.80;8.48;;;2.20;97.80;;;;;;5031192;28;20200;-68
2023/04/15 05:05:48;;;;;;;10.68;7.60;;;2.30;97.00;;;;;;5031760;28;20680;-68
2023/04/15 05:08:14;;;;;;;9.65;6.85;;;2.20;96.40;;;;;;5030879;28;20237;-70
2023/04/15 05:10:43;;;;;;;13.20;8.55;;;2.30;96.50;;;;;;5031683;28;20956;-67
2023/04/15 05:13:09;;;;;;;13.13;8.68;;;2.30;96.80;;;;;;5030768;28;20693;-65
2023/04/15 05:15:38;;;;;;;10.85;8.65;;;2.30;96.90;;;;;;5031390;28;20590;-68
2023/04/15 05:18:05;;;;;;;12.90;8.50;;;2.40;97.20;;;;;;5050577;28;20195;-69
2023/04/15 05:20:32;;;;;;;9.52;8.02;;;2.50;97.10;;;;;;5042490;28;20587;-66
2023/04/15 05:22:58;;;;;;;12.88;9.55;;;2.50;97.10;;;;;;5030632;28;20223;-67
2023/04/15 05:25:25;;;;;;;13.25;8.98;;;2.60;96.90;;;;;;5030254;28;20377;-68
2023/04/15 05:27:53;;;;;;;9.98;8.50;;;2.70;96.50;;;;;;5030971;28;20212;-67
2023/04/15 05:30:21;;;;;;;14.32;8.23;;;2.80;96.70;;;;;;5030535;28;20342;-67
2023/04/15 05:32:47;;;;;;;10.05;8.20;;;2.80;96.30;;;;;;5030771;28;20314;-68
2023/04/15 05:35:15;;;;;;;10.75;8.60;;;2.80;96.30;;;;;;5031155;28;20220;-67
2023/04/15 05:37:41;;;;;;;11.70;8.18;;;2.90;96.50;;;;;;5031752;28;20217;-67
2023/04/15 05:40:09;;;;;;;11.80;8.70;;;2.90;96.50;;;;;;5032835;28;20227;-67
2023/04/15 05:42:36;;;;;;;9.20;8.27;;;3.00;96.50;;;;;;5032905;28;20208;-68
2023/04/15 05:45:07;;;;;;;9.87;7.43;;;3.20;96.20;;;;;;5036686;28;20269;-70
2023/04/15 05:47:35;;;;;;;10.35;8.10;;;3.20;96.10;;;;;;5033372;28;20958;-69
2023/04/15 05:50:02;;;;;;;9.93;7.57;;;3.30;95.70;;;;;;5031214;28;20576;-69
2023/04/15 05:52:28;;;;;;;12.73;7.90;;;3.30;95.80;;;;;;5031579;28;20459;-68
2023/04/15 05:54:55;;;;;;;13.40;7.57;;;3.50;95.90;;;;;;5031385;28;21278;-71
2023/04/15 05:57:22;;;;;;;11.13;7.93;;;3.70;95.30;;;;;;5045893;28;20455;-67
2023/04/15 05:59:51;;;;;;;12.20;6.90;;;3.70;94.90;;;;;;5051324;28;20201;-68
2023/04/15 06:02:19;;;;;;;7.70;6.80;;;3.90;94.80;;;;;;5050982;28;20473;-68
2023/04/15 06:04:46;;;;;;;10.40;7.60;;;4.00;94.70;;;;;;5049619;28;20452;-69
2023/04/15 06:07:12;;;;;;;10.37;7.70;;;4.20;94.40;;;;;;5046195;28;20459;-67
2023/04/15 06:09:40;;;;;;;10.00;7.00;;;4.30;93.60;;;;;;5030299;28;20683;-69
2023/04/15 06:12:10;;;;;;;7.97;7.17;;;4.40;93.60;;;;;;5030069;28;20472;-66
2023/04/15 06:14:37;;;;;;;6.90;6.10;;;4.60;93.20;;;;;;5029870;28;20433;-67
2023/04/15 06:17:04;;;;;;;7.50;5.97;;;4.90;91.50;;;;;;5039997;28;20851;-68
2023/04/15 06:19:32;;;;;;;8.07;6.27;;;5.10;90.30;;;;;;5050065;28;20797;-67
2023/04/15 06:21:59;;;;;;;7.50;6.00;;;5.40;88.60;;;;;;5049639;28;20465;-67
2023/04/15 06:24:26;;;;;;;8.60;5.90;;;5.60;88.20;;;;;;5049611;28;20845;-70
2023/04/15 06:26:53;;;;;;;8.43;5.80;;;5.70;88.30;;;;;;5049649;28;20450;-68
2023/04/15 06:29:20;;;;;;;7.43;6.20;;;5.90;88.70;;;;;;5043968;28;20478;-67
2023/04/15 06:31:48;;;;;;;8.73;7.10;;;6.10;87.70;;;;;;5029703;28;20467;-69
2023/04/15 06:34:14;;;;;;;8.33;6.87;;;6.40;87.20;;;;;;5029430;28;20492;-69
2023/04/15 06:36:42;;;;;;;11.00;6.00;;;6.60;84.20;;;;;;5030054;28;20446;-68
2023/04/15 06:39:09;;;;;;;6.80;5.93;;;6.70;85.50;;;;;;5030001;28;20439;-67
2023/04/15 06:41:36;;;;;;;8.77;6.80;;;6.80;87.40;;;;;;5030055;28;20539;-67
2023/04/15 06:44:03;;;;;;;7.07;6.40;;;6.80;87.80;;;;;;5038889;28;20476;-71
2023/04/15 06:46:30;;;;;;;7.03;6.33;;;6.90;87.20;;;;;;5049790;28;20474;-68
2023/04/15 06:48:56;;;;;;;6.47;5.80;;;6.90;86.20;;;;;;5049628;28;20478;-72
2023/04/15 06:51:23;;;;;;;9.53;6.67;;;6.90;85.70;;;;;;5049480;28;20859;-67
2023/04/15 06:53:52;;;;;;;7.90;7.10;;;7.10;84.70;;;;;;5049284;28;20452;-67
2023/04/15 06:56:18;;;;;;;6.97;6.27;;;7.30;84.80;;;;;;5034579;28;20458;-66
2023/04/15 06:58:46;;;;;;;7.60;6.80;;;7.30;83.20;;;;;;5029347;28;20452;-71
2023/04/15 07:01:13;;;;;;;7.73;7.00;;;7.40;85.10;;;;;;5029441;28;20825;-66
2023/04/15 07:03:40;;;;;;;8.47;6.30;;;7.50;84.90;;;;;;5029287;28;20444;-69
2023/04/15 07:06:08;;;;;;;11.43;6.30;;;7.50;82.90;;;;;;5029557;28;20452;-66
2023/04/15 07:08:35;;;;;;;9.23;7.20;;;7.40;83.60;;;;;;5029239;28;20514;-69
2023/04/15 07:11:03;;;;;;;8.20;7.03;;;7.40;82.30;;;;;;5047521;28;20468;-70
2023/04/15 07:13:31;;;;;;;6.93;6.27;;;7.40;82.50;;;;;;5048336;28;20811;-69
2023/04/15 07:15:58;;;;;;;8.73;6.77;;;7.40;81.30;;;;;;5049516;28;20961;-67
2023/04/15 07:18:25;;;;;;;8.10;6.63;;;7.30;83.00;;;;;;5048721;28;22115;-66
2023/04/15 07:20:52;;;;;;;6.83;5.90;;;7.40;83.90;;;;;;5049199;28;20460;-67
2023/04/15 07:23:20;;;;;;;11.50;6.63;;;7.30;84.10;;;;;;5048810;28;20443;-66
2023/04/15 07:25:47;;;;;;;7.77;6.63;;;7.50;84.70;;;;;;5047382;28;20467;-68
2023/04/15 07:28:15;;;;;;;7.77;7.07;;;7.50;83.80;;;;;;5049338;28;20822;-66
2023/04/15 07:30:42;;;;;;;6.70;6.10;;;7.60;83.60;;;;;;5048638;28;20488;-72
2023/04/15 07:33:08;;;;;;;9.00;6.03;;;7.90;82.70;;;;;;5048853;28;20822;-67
2023/04/15 07:35:35;;;;;;;6.33;5.70;;;8.20;81.20;;;;;;5048883;28;20452;-67
2023/04/15 07:38:02;;;;;;;6.17;5.57;;;8.30;79.60;;;;;;5049238;28;20534;-68
2023/04/15 07:40:29;;;;;;;8.47;6.47;;;8.60;80.70;;;;;;5048952;28;20460;-67
2023/04/15 07:42:57;;;;;;;9.73;6.47;;;9.10;78.60;;;;;;5047414;28;20465;-68
2023/04/15 07:45:26;;;;;;;6.77;6.00;;;9.40;76.50;;;;;;5049373;28;20455;-67
2023/04/15 07:47:52;;;;;;;8.87;6.00;;;9.50;73.10;;;;;;5044155;28;20903;-66
2023/04/15 07:50:19;;;;;;;6.87;6.13;;;9.50;74.90;;;;;;5032891;28;20483;-66
2023/04/15 07:52:46;;;;;;;7.67;5.70;;;9.60;72.20;;;;;;5041659;28;20455;-67
2023/04/15 07:55:14;;;;;;;12.40;6.47;;;9.80;73.50;;;;;;5052914;28;20483;-67
2023/04/15 07:57:40;;;;;;;6.37;5.77;;;9.90;70.40;;;;;;5035278;28;20457;-70
2023/04/15 08:00:08;;;;;;;8.40;5.93;;;9.90;70.80;;;;;;5032873;28;20457;-66
2023/04/15 08:02:36;;;;;;;9.15;6.10;;;9.90;69.30;;;;;;5051503;28;20440;-67
2023/04/15 08:05:03;;;;;;;8.50;6.40;;;10.00;71.10;;;;;;5052104;28;20208;-68
2023/04/15 08:07:31;;;;;;;6.57;5.93;;;10.20;70.50;;;;;;5052322;28;20444;-69
2023/04/15 08:09:58;;;;;;;7.43;6.17;;;10.40;69.90;;;;;;5051970;28;20482;-67
2023/04/15 08:12:24;;;;;;;6.03;5.30;;;10.70;68.70;;;;;;5039443;28;20836;-70
2023/04/15 08:14:51;;;;;;;8.30;6.03;;;11.10;67.30;;;;;;5051248;28;20443;-72
2023/04/15 08:17:18;;;;;;;8.10;7.27;;;11.30;62.40;;;;;;5051785;28;21033;-67
2023/04/15 08:19:47;;;;;;;7.70;5.93;;;11.40;62.10;;;;;;5051987;28;20452;-67
2023/04/15 08:22:14;;;;;;;8.60;6.07;;;11.50;63.30;;;;;;5051648;28;20961;-69
2023/04/15 08:24:41;;;;;;;10.13;6.10;;;11.80;60.70;;;;;;5051724;28;21059;-69
2023/04/15 08:27:08;;;;;;;9.40;6.63;;;12.00;59.20;;;;;;5049474;28;20464;-70
2023/04/15 08:29:35;;;;;;;12.80;5.30;;;12.30;58.30;;;;;;5051211;28;20475;-67
2023/04/15 08:32:02;;;;;;;8.37;5.40;;;12.50;57.10;;;;;;5051605;28;20869;-68
2023/04/15 08:34:30;;;;;;;7.17;5.60;;;12.80;57.50;;;;;;5051294;28;20451;-70
2023/04/15 08:36:58;;;;;;;7.43;5.23;;;13.20;56.80;;;;;;5051955;28;20543;-68
2023/04/15 08:39:25;;;;;;;8.43;5.03;;;13.50;55.90;;;;;;5051696;28;20443;-69
2023/04/15 08:41:56;;;;;;;8.60;4.73;;;13.50;52.80;;;;;;5052140;28;20774;-69
2023/04/15 08:44:24;;;;;;;8.57;5.33;;;13.40;52.60;;;;;;5049495;28;20455;-68
2023/04/15 08:46:53;;;;;;;9.23;5.30;;;13.50;52.40;;;;;;5052054;28;20462;-68
2023/04/15 08:49:22;;;;;;;8.53;5.63;;;13.10;53.40;;;;;;5051315;28;20453;-71
2023/04/15 08:51:49;;;;;;;7.17;5.40;;;13.00;54.70;;;;;;5051593;28;20888;-72
2023/04/15 08:54:18;;;;;;;6.10;5.40;;;13.10;56.00;;;;;;5048159;28;20454;-68
2023/04/15 08:56:45;;;;;;;10.17;5.70;;;13.10;58.10;;;;;;5050489;28;20453;-73
2023/04/15 08:59:12;;;;;;;7.10;5.40;;;13.40;56.70;;;;;;5050587;28;20463;-69
2023/04/15 09:01:40;;;;;;;6.00;5.37;;;13.60;55.40;;;;;;5032843;28;20473;-72
2023/04/15 09:04:07;;;;;;;6.20;5.33;;;14.00;54.80;;;;;;5048566;28;20447;-68
2023/04/15 09:06:34;;;;;;;6.40;4.60;;;14.10;52.50;;;;;;5051109;28;20856;-74
2023/04/15 09:09:03;;;;;;;6.13;5.10;;;14.30;54.10;;;;;;5050627;28;20451;-69
2023/04/15 09:11:31;;;;;;;11.90;5.87;;;14.40;52.00;;;;;;5050779;28;20568;-68
2023/04/15 09:13:58;;;;;;;6.10;5.50;;;14.30;53.80;;;;;;5046505;28;20466;-67
2023/04/15 09:16:25;;;;;;;8.70;5.77;;;14.20;53.60;;;;;;5048213;28;20452;-66
2023/04/15 09:18:52;;;;;;;5.87;5.27;;;14.30;54.10;;;;;;5049563;28;20465;-68
2023/04/15 09:21:18;;;;;;;5.40;4.70;;;14.40;54.30;;;;;;5049198;28;20463;-67
2023/04/15 09:23:55;;;;;;;5.53;4.00;;;14.40;51.80;;;;;;5049041;28;20486;-69
2023/04/15 09:26:33;;;;;;;5.10;3.73;;;14.30;49.00;;;;;;5048975;28;20443;-68
2023/04/15 09:29:05;;;;;;;4.10;3.67;;;14.50;52.50;;;;;;5049422;28;20512;-72
2023/04/15 09:31:32;;;;;;;4.97;4.10;;;15.10;52.70;;;;;;5049199;28;20484;-70
2023/04/15 09:33:59;;;;;;;5.07;4.53;;;15.20;49.90;;;;;;5048567;28;20450;-68
2023/04/15 09:36:28;;;;;;;8.50;5.30;;;14.80;49.70;;;;;;5050322;28;20462;-69
2023/04/15 09:38:56;;;;;;;4.40;3.93;;;14.60;50.70;;;;;;5050093;28;20539;-67
2023/04/15 09:41:24;;;;;;;6.50;3.80;;;14.60;49.10;;;;;;5050002;28;20531;-68
2023/04/15 09:43:52;;;;;;;4.13;3.53;;;14.60;48.60;;;;;;5050073;28;20526;-69
2023/04/15 09:46:19;;;;;;;10.90;4.20;;;14.60;48.40;;;;;;5050316;28;20459;-68
2023/04/15 09:48:46;;;;;;;5.60;4.40;;;14.50;49.10;;;;;;5050398;28;20445;-68
2023/04/15 09:51:13;;;;;;;5.10;4.60;;;14.60;50.80;;;;;;5044014;28;20567;-68
2023/04/15 09:53:40;;;;;;;9.80;5.97;;;14.40;51.70;;;;;;5049755;28;20443;-71
2023/04/15 09:56:09;;;;;;;6.37;4.40;;;14.00;50.70;;;;;;5049244;28;20475;-68
2023/04/15 09:58:37;;;;;;;7.03;4.50;;;13.90;50.70;;;;;;5046399;28;20462;-72
2023/04/15 10:01:06;;;;;;;6.97;4.37;;;14.00;51.20;;;;;;5046169;28;20472;-70
2023/04/15 10:03:35;;;;;;;7.20;4.50;;;14.00;50.90;;;;;;5048840;28;20457;-68
2023/04/15 10:06:04;;;;;;;6.03;4.50;;;13.90;51.90;;;;;;5049715;28;20504;-70
2023/04/15 10:08:33;;;;;;;4.30;4.00;;;13.70;52.00;;;;;;5048371;28;20453;-67
2023/04/15 10:11:02;;;;;;;5.50;4.40;;;13.60;52.10;;;;;;5046158;28;20486;-72
2023/04/15 10:13:34;;;;;;;7.17;4.57;;;13.60;52.40;;;;;;5042459;28;20443;-68
2023/04/15 10:16:06;;;;;;;5.20;3.20;;;14.20;51.10;;;;;;5049498;28;20539;-68
2023/04/15 10:18:36;;;;;;;6.30;3.70;;;14.90;49.70;;;;;;5046949;28;20440;-67
2023/04/15 10:21:02;;;;;;;3.73;3.37;;;15.10;47.30;;;;;;5049106;28;21020;-68
2023/04/15 10:23:30;;;;;;;3.90;2.70;;;14.80;47.30;;;;;;5049493;28;20488;-67
2023/04/15 10:25:58;;;;;;;4.10;3.23;;;14.70;48.80;;;;;;5049386;28;20828;-69
2023/04/15 10:28:26;;;;;;;3.03;2.60;;;14.80;47.50;;;;;;5049621;28;20440;-68
2023/04/15 10:30:53;;;;;;;5.80;2.87;;;14.70;47.30;;;;;;5045854;28;20476;-70
2023/04/15 10:33:23;;;;;;;5.67;3.40;;;14.70;47.20;;;;;;5048695;28;20447;-67
2023/04/15 10:35:52;;;;;;;4.20;2.60;;;14.80;46.80;;;;;;5049880;28;20956;-67
2023/04/15 10:38:32;;;;;;;3.73;2.70;;;14.80;45.10;;;;;;5049386;28;20432;-70
2023/04/15 10:41:12;;;;;;;6.27;3.40;;;14.50;46.90;;;;;;5044124;28;20468;-68
2023/04/15 10:43:39;;;;;;;4.87;3.10;;;14.60;47.30;;;;;;5046973;28;20470;-71
2023/04/15 10:46:06;;;;;;;4.70;3.77;;;14.80;47.20;;;;;;5049363;28;20444;-68
2023/04/15 10:48:34;;;;;;;3.63;2.63;;;14.80;46.10;;;;;;5047413;28;20905;-71
2023/04/15 10:51:02;;;;;;;4.10;3.17;;;15.00;48.20;;;;;;5049275;28;20487;-68
2023/04/15 10:53:30;;;;;;;4.50;3.90;;;15.30;46.50;;;;;;5040137;28;20962;-69
2023/04/15 10:55:58;;;;;;;7.77;4.70;;;15.30;47.20;;;;;;5046946;28;20539;-68
2023/04/15 10:58:26;;;;;;;16.53;14.83;;;15.30;48.10;;;;;;5047720;28;20446;-68
2023/04/15 11:00:53;;;;;;;6.37;5.80;;;15.30;46.20;;;;;;5048562;28;20474;-68
2023/04/15 11:03:37;;;;;;;7.10;5.93;;;15.30;45.70;;;;;;5046297;28;20445;-68
2023/04/15 11:06:05;;;;;;;7.70;5.10;;;15.50;44.80;;;;;;5046440;28;20441;-71
2023/04/15 11:08:54;;;;;;;4.77;3.50;;;15.60;46.20;;;;;;5048494;28;20455;-68
2023/04/15 11:11:21;;;;;;;4.73;3.90;;;15.80;46.90;;;;;;5041313;28;20486;-70
2023/04/15 11:13:49;;;;;;;8.33;4.07;;;16.00;46.00;;;;;;5048675;28;20447;-68
2023/04/15 11:16:16;;;;;;;8.57;4.83;;;16.30;46.40;;;;;;5046318;28;20831;-68
2023/04/15 11:18:53;;;;;;;6.30;4.53;;;16.10;47.00;;;;;;5048594;28;20443;-67
2023/04/15 11:21:24;;;;;;;5.00;4.50;;;15.90;45.40;;;;;;5049022;28;20466;-68
2023/04/15 11:23:51;;;;;;;6.40;5.13;;;15.80;46.20;;;;;;5050296;28;20963;-68
2023/04/15 11:26:18;;;;;;;5.90;5.00;;;15.60;44.90;;;;;;5049177;28;20459;-68
2023/04/15 11:28:46;;;;;;;4.87;4.47;;;15.40;48.50;;;;;;5051863;28;20447;-68
2023/04/15 11:31:15;;;;;;;4.97;4.47;;;15.20;48.90;;;;;;5052404;28;20541;-68
2023/04/15 11:33:53;;;;;;;6.30;4.70;;;14.90;49.40;;;;;;5032386;28;20456;-67
2023/04/15 11:36:20;;;;;;;6.43;4.63;;;14.50;50.20;;;;;;5032488;28;20463;-67
2023/04/15 11:38:47;;;;;;;5.60;5.00;;;14.30;52.00;;;;;;5033241;28;20540;-68
2023/04/15 11:41:14;;;;;;;6.40;4.90;;;14.10;51.80;;;;;;5032455;28;20541;-67
2023/04/15 11:43:41;;;;;;;4.37;4.03;;;14.00;51.30;;;;;;5032742;28;21055;-68
2023/04/15 11:46:08;;;;;;;5.23;4.00;;;14.10;50.70;;;;;;5032701;28;20579;-68
2023/04/15 11:48:36;;;;;;;8.47;4.50;;;14.20;48.00;;;;;;5033009;28;20455;-68
2023/04/15 11:51:06;;;;;;;5.80;4.30;;;14.30;48.80;;;;;;5052318;28;20493;-70
2023/04/15 11:53:40;;;;;;;7.30;4.57;;;14.40;49.10;;;;;;5032102;28;20456;-67
2023/04/15 11:56:09;;;;;;;4.43;3.60;;;14.70;48.30;;;;;;5032934;28;20900;-68
2023/04/15 11:58:38;;;;;;;4.20;3.30;;;15.10;47.00;;;;;;5032245;28;20465;-68
2023/04/15 12:01:06;;;;;;;4.30;2.50;;;15.40;45.80;;;;;;5034995;28;21016;-69
2023/04/15 12:03:37;;;;;;;4.73;3.00;;;15.00;45.50;;;;;;5032135;28;20892;-70
2023/04/15 12:06:11;;;;;;;5.50;3.60;;;14.10;47.60;;;;;;5032304;28;20485;-67
2023/04/15 12:08:59;;;;;;;4.33;2.80;;;13.60;50.30;;;;;;5032549;28;20496;-68
2023/04/15 12:11:34;;;;;;;3.70;3.00;;;13.40;52.50;;;;;;5032021;28;20478;-69
2023/04/15 12:14:05;;;;;;;9.03;4.43;;;13.40;54.40;;;;;;5032237;28;20445;-68
2023/04/15 12:16:33;;;;;;;3.97;3.57;;;13.20;58.00;;;;;;5032196;28;20536;-68
2023/04/15 12:19:01;;;;;;;5.50;3.70;;;12.90;57.00;;;;;;5032156;28;20442;-68
2023/04/15 12:21:35;;;;;;;5.47;4.17;;;12.70;56.30;;;;;;5032014;28;20841;-69
2023/04/15 12:24:04;;;;;;;8.60;4.13;;;12.50;56.50;;;;;;5031685;28;20578;-68
2023/04/15 12:26:34;;;;;;;10.23;4.80;;;12.10;56.50;;;;;;5043648;28;20448;-66
2023/04/15 12:29:02;;;;;;;6.10;5.50;;;11.30;65.50;;;;;;5048869;28;20469;-67
2023/04/15 12:31:29;;;;;;;4.87;4.47;;;10.30;72.70;;;;;;5055911;28;20482;-64
2023/04/15 12:33:56;;;;;;;6.97;6.20;;;9.80;79.00;;;;;;5045418;28;20457;-68
2023/04/15 12:36:23;;;;;;;6.50;5.90;;;9.50;83.90;;;;;;5031363;28;20455;-65
2023/04/15 12:38:52;;;;;;;10.47;6.70;;;9.10;83.70;;;;;;5036721;28;20450;-69
2023/04/15 12:41:19;;;;;;;9.13;5.00;;;8.80;85.60;;;;;;5055747;28;20469;-65
2023/04/15 12:43:46;;;;;;;8.70;5.73;;;8.60;86.70;;;;;;5051510;28;20451;-68
2023/04/15 12:46:14;;;;;;;8.73;6.83;;;8.60;87.80;;;;;;5051383;28;20439;-66
2023/04/15 12:48:41;;;;;;;7.13;5.17;;;8.70;90.10;;;;;;5048985;28;20452;-70
2023/04/15 12:51:08;;;;;;;5.10;4.70;;;8.90;89.80;;;;;;5050556;28;20623;-65
2023/04/15 12:53:35;;;;;;;5.10;4.53;;;9.10;86.80;;;;;;5050397;28;20441;-67